Time;durP1;ratioP1;P1;durP2;ratioP2;P2;SDS_P1;SDS_P2;PMS_P1;PMS_P2;Temp;Humidity;BMP_temperature;BMP_pressure;BME280_temperature;BME280_humidity;BME280_pressure;Samples;Min_cycle;Max_cycle;Signal;HPM_P1;HPM_P2
2022/04/18 00:02:09;;;;;;;21.50;12.43;;;;;;;7.92;47.48;101947.81;5029341;28;20046;-68
2022/04/18 00:04:37;;;;;;;20.73;12.32;;;;;;;7.85;47.42;101937.31;5031515;28;20089;-69
2022/04/18 00:07:04;;;;;;;18.38;11.65;;;;;;;7.78;47.18;101941.69;5027476;28;20042;-70
2022/04/18 00:09:33;;;;;;;18.67;11.75;;;;;;;7.68;47.17;101940.81;5020159;28;20045;-68
2022/04/18 00:12:03;;;;;;;16.77;11.23;;;;;;;7.60;47.35;101942.56;5027570;28;20042;-68
2022/04/18 00:14:33;;;;;;;19.13;11.07;;;;;;;7.55;47.36;101934.72;5031784;28;20036;-69
2022/04/18 00:17:01;;;;;;;18.77;10.00;;;;;;;7.49;47.51;101928.56;5031604;28;20057;-68
2022/04/18 00:19:28;;;;;;;17.30;10.13;;;;;;;7.44;47.38;101939.06;5032210;28;20049;-69
2022/04/18 00:21:55;;;;;;;15.45;9.48;;;;;;;7.37;47.38;101932.97;5032582;28;20555;-70
2022/04/18 00:24:22;;;;;;;13.80;9.20;;;;;;;7.30;47.70;101942.59;5032143;28;20053;-70
2022/04/18 00:26:49;;;;;;;15.15;9.57;;;;;;;7.22;47.82;101932.94;5030327;28;20789;-70
2022/04/18 00:29:17;;;;;;;16.45;9.98;;;;;;;7.15;47.85;101937.31;5032128;28;22151;-69
2022/04/18 00:31:44;;;;;;;14.77;9.55;;;;;;;7.11;48.26;101935.56;5030955;28;20054;-70
2022/04/18 00:34:14;;;;;;;15.18;9.55;;;;;;;7.08;48.24;101931.16;5025878;28;20073;-70
2022/04/18 00:36:41;;;;;;;15.73;9.77;;;;;;;7.02;48.16;101931.16;5032479;28;20050;-69
2022/04/18 00:39:08;;;;;;;15.43;10.07;;;;;;;6.95;48.22;101934.66;5028651;28;20065;-69
2022/04/18 00:41:35;;;;;;;14.85;9.35;;;;;;;6.87;48.74;101939.88;5031471;28;20045;-67
2022/04/18 00:44:03;;;;;;;14.73;10.00;;;;;;;6.80;48.63;101933.75;5030083;28;20045;-67
2022/04/18 00:46:30;;;;;;;15.55;10.00;;;;;;;6.75;48.55;101935.47;5028701;28;20050;-68
2022/04/18 00:48:59;;;;;;;15.63;9.43;;;;;;;6.73;48.94;101939.84;5029277;28;20097;-68
2022/04/18 00:51:26;;;;;;;16.17;9.77;;;;;;;6.71;48.86;101940.72;5025898;28;20042;-67
2022/04/18 00:53:57;;;;;;;13.88;8.80;;;;;;;6.67;48.83;101931.94;5029799;28;20073;-67
2022/04/18 00:56:26;;;;;;;13.27;8.30;;;;;;;6.63;48.69;101928.44;5030091;28;20132;-68
2022/04/18 00:58:55;;;;;;;12.57;7.90;;;;;;;6.59;48.45;101928.41;5024263;28;20129;-68
2022/04/18 01:01:23;;;;;;;11.50;7.72;;;;;;;6.56;48.58;101924.06;5028697;28;20053;-68
2022/04/18 01:04:05;;;;;;;12.32;7.43;;;;;;;6.55;48.93;101924.91;5029974;28;20053;-68
2022/04/18 01:06:33;;;;;;;11.20;7.18;;;;;;;6.55;48.77;101927.53;5028764;28;20518;-68
2022/04/18 01:09:02;;;;;;;11.50;6.70;;;;;;;6.57;48.62;101922.28;5017412;28;20077;-68
2022/04/18 01:11:33;;;;;;;10.18;7.03;;;;;;;6.51;49.00;101921.41;5026402;28;20042;-67
2022/04/18 01:14:18;;;;;;;9.30;6.72;;;;;;;6.48;49.16;101904.81;5016024;28;20042;-67
2022/04/18 01:17:05;;;;;;;9.50;6.20;;;;;;;6.49;49.27;101911.81;5028300;28;20041;-69
2022/04/18 01:19:39;;;;;;;10.73;5.78;;;;;;;6.49;49.01;101911.81;5021640;28;20047;-69
2022/04/18 01:22:09;;;;;;;10.07;5.72;;;;;;;6.49;49.18;101910.06;5029718;28;20134;-68
2022/04/18 01:30:37;;;;;;;7.63;4.85;;;;;;;6.44;48.52;101914.41;5022851;28;20053;-69
2022/04/18 01:33:06;;;;;;;7.10;5.05;;;;;;;6.43;48.66;101912.66;5011505;28;20133;-69
2022/04/18 01:35:36;;;;;;;8.90;5.57;;;;;;;6.42;48.75;101908.28;5028411;28;20093;-69
2022/04/18 01:38:07;;;;;;;8.55;5.45;;;;;;;6.42;48.76;101904.78;5029937;28;20046;-68
2022/04/18 01:40:35;;;;;;;10.70;5.50;;;;;;;6.43;48.75;101907.41;5025926;28;20037;-69
2022/04/18 01:43:04;;;;;;;7.20;4.68;;;;;;;6.43;48.61;101906.53;5028353;28;20053;-67
2022/04/18 01:45:32;;;;;;;7.95;5.13;;;;;;;6.42;48.48;101912.63;5020803;28;20555;-70
2022/04/18 01:48:07;;;;;;;7.18;4.90;;;;;;;6.39;48.63;101910.88;5021064;28;20515;-68
2022/04/18 01:50:36;;;;;;;9.95;5.05;;;;;;;6.36;48.68;101911.75;5031575;28;20066;-68
2022/04/18 01:53:04;;;;;;;8.05;5.32;;;;;;;6.33;48.58;101901.25;5029740;28;20050;-69
2022/04/18 01:55:31;;;;;;;9.00;5.45;;;;;;;6.30;48.63;101900.38;5021311;28;20077;-69
2022/04/18 01:57:59;;;;;;;8.90;5.57;;;;;;;6.27;48.75;101898.63;5021066;28;20045;-68
2022/04/18 02:00:27;;;;;;;9.52;5.40;;;;;;;6.25;49.04;101897.72;5038050;28;20802;-68
2022/04/18 02:02:54;;;;;;;8.15;4.70;;;;;;;6.22;48.95;101895.97;5029029;28;20161;-69
2022/04/18 02:05:22;;;;;;;10.93;5.20;;;;;;;6.18;48.81;101894.19;5028648;28;20104;-68
2022/04/18 02:07:49;;;;;;;7.28;5.28;;;;;;;6.15;48.80;101902.06;5033241;28;20046;-69
2022/04/18 02:10:17;;;;;;;7.95;5.38;;;;;;;6.12;49.00;101895.91;5011768;28;20100;-70
2022/04/18 02:12:44;;;;;;;7.75;5.30;;;;;;;6.10;49.73;101898.53;5024722;28;20043;-69
2022/04/18 02:15:11;;;;;;;8.82;5.72;;;;;;;6.14;49.72;101891.56;5036859;28;20046;-66
2022/04/18 02:18:11;;;;;;;9.52;5.40;;;;;;;6.10;49.34;101895.91;5029614;28;20109;-67
2022/04/18 02:20:38;;;;;;;9.45;6.00;;;;;;;6.04;49.36;101896.75;5030640;28;20042;-67
2022/04/18 02:23:06;;;;;;;8.68;5.20;;;;;;;5.97;50.33;101887.09;5021306;28;20048;-67
2022/04/18 02:25:33;;;;;;;9.07;5.75;;;;;;;5.97;50.25;101888.81;5027270;28;20085;-67
2022/04/18 02:28:11;;;;;;;8.35;4.97;;;;;;;5.94;50.26;101887.06;5042691;28;20046;-69
2022/04/18 02:30:47;;;;;;;12.68;5.60;;;;;;;5.88;50.15;101876.56;5012827;28;20194;-70
2022/04/18 02:33:15;;;;;;;7.78;4.70;;;;;;;5.83;50.26;101881.78;5022687;28;20112;-69
2022/04/18 02:35:43;;;;;;;6.53;4.75;;;;;;;5.80;50.15;101879.13;5043532;28;20715;-70
2022/04/18 02:38:14;;;;;;;7.88;4.53;;;;;;;5.81;50.16;101877.38;5029521;28;20038;-69
2022/04/18 02:40:46;;;;;;;7.88;4.85;;;;;;;5.81;50.38;101875.66;5013964;28;20048;-69
2022/04/18 02:43:13;;;;;;;6.65;4.60;;;;;;;5.79;49.99;101880.00;5027057;28;20048;-69
2022/04/18 02:45:46;;;;;;;6.45;4.65;;;;;;;5.77;50.08;101876.50;5016737;28;20050;-68
2022/04/18 02:48:26;;;;;;;7.50;4.43;;;;;;;5.75;50.28;101872.97;5030095;28;20034;-69
2022/04/18 02:50:57;;;;;;;8.15;4.28;;;;;;;5.73;50.23;101872.97;5032101;28;20058;-68
2022/04/18 02:53:27;;;;;;;8.38;4.75;;;;;;;5.69;50.17;101875.56;5028158;28;20100;-69
2022/04/18 02:55:59;;;;;;;8.18;5.60;;;;;;;5.59;50.49;101870.28;5028354;28;20042;-70
2022/04/18 02:58:26;;;;;;;8.60;5.25;;;;;;;5.49;50.75;101870.22;5027807;28;20081;-69
2022/04/18 03:00:54;;;;;;;8.52;5.97;;;;;;;5.38;51.12;101862.28;5022005;28;20049;-68
2022/04/18 03:03:22;;;;;;;10.70;6.00;;;;;;;5.27;51.33;101870.91;5027037;28;20042;-69
2022/04/18 03:05:49;;;;;;;9.35;5.55;;;;;;;5.17;51.43;101863.00;5048018;28;20034;-70
2022/04/18 03:08:17;;;;;;;9.52;5.18;;;;;;;5.09;51.84;101857.69;5026269;28;20035;-70
2022/04/18 03:13:34;;;;;;;7.40;5.25;;;;;;;4.94;52.06;101854.06;5016636;28;21536;-69
2022/04/18 03:16:05;;;;;;;7.90;5.18;;;;;;;4.89;52.01;101860.09;5025674;28;20043;-67
2022/04/18 03:18:34;;;;;;;7.10;4.90;;;;;;;4.84;52.45;101856.59;5025470;28;20047;-68
2022/04/18 03:21:03;;;;;;;9.57;4.72;;;;;;;4.78;52.60;101852.16;5028436;28;20041;-67
2022/04/18 03:23:31;;;;;;;9.45;5.03;;;;;;;4.77;52.68;101861.75;5043429;28;20047;-69
2022/04/18 03:26:18;;;;;;;9.55;5.00;;;;;;;4.72;52.45;101857.34;5023789;28;20053;-67
2022/04/18 03:29:03;;;;;;;7.03;4.30;;;;;;;4.68;52.52;101852.94;5023240;28;20070;-69
2022/04/18 03:31:30;;;;;;;6.93;4.15;;;;;;;4.64;52.24;101847.66;5022826;28;20065;-69
2022/04/18 03:33:59;;;;;;;6.47;4.03;;;;;;;4.62;52.63;101852.03;5023352;28;20046;-70
2022/04/18 03:41:59;;;;;;;5.80;4.00;;;;;;;4.58;52.63;101850.22;5019456;28;20046;-68
2022/04/18 03:44:26;;;;;;;6.13;3.92;;;;;;;4.57;52.40;101848.47;5025821;28;20118;-69
2022/04/18 03:46:54;;;;;;;6.80;4.15;;;;;;;4.57;52.84;101845.84;5028309;28;20046;-69
2022/04/18 03:49:21;;;;;;;7.35;4.28;;;;;;;4.58;53.21;101849.38;5022412;28;20122;-69
2022/04/18 03:51:51;;;;;;;5.55;4.32;;;;;;;4.57;53.00;101853.69;5022474;28;20457;-69
2022/04/18 03:54:18;;;;;;;6.72;4.10;;;;;;;4.56;53.23;101846.72;5027647;28;20090;-68
2022/04/18 03:56:45;;;;;;;6.38;4.20;;;;;;;4.54;53.23;101843.22;5025458;28;20081;-68
2022/04/18 03:59:31;;;;;;;6.57;4.18;;;;;;;4.53;53.20;101845.81;5019646;28;20043;-69
2022/04/18 04:02:02;;;;;;;6.47;3.78;;;;;;;4.53;53.35;101848.44;5028357;28;20041;-69
2022/04/18 04:04:32;;;;;;;5.97;4.00;;;;;;;4.51;53.04;101851.03;5022591;28;20543;-68
2022/04/18 04:07:04;;;;;;;8.05;3.90;;;;;;;4.49;53.03;101840.53;5026318;28;20509;-69
2022/04/18 04:09:34;;;;;;;4.63;3.42;;;;;;;4.49;52.82;101843.16;5042743;28;20046;-68
2022/04/18 04:12:05;;;;;;;4.78;3.65;;;;;;;4.47;52.85;101841.41;5028145;28;20049;-70
2022/04/18 04:14:53;;;;;;;6.10;4.03;;;;;;;4.43;53.14;101840.50;5027612;28;20044;-70
2022/04/18 04:17:29;;;;;;;5.93;3.92;;;;;;;4.41;53.59;101838.72;5020607;28;20058;-69
2022/04/18 04:20:19;;;;;;;8.07;4.10;;;;;;;4.38;53.48;101844.78;5029850;28;20479;-69
2022/04/18 04:22:51;;;;;;;5.72;3.75;;;;;;;4.36;53.50;101838.69;5020021;28;20508;-67
2022/04/18 04:25:56;;;;;;;5.03;3.92;;;;;;;4.33;53.46;101843.84;5028325;28;20053;-67
2022/04/18 04:28:39;;;;;;;5.63;3.85;;;;;;;4.30;53.25;101843.81;5030502;28;20120;-68
2022/04/18 04:31:12;;;;;;;5.70;3.97;;;;;;;4.27;53.42;101844.66;5040966;28;20468;-67
2022/04/18 04:33:39;;;;;;;5.50;3.45;;;;;;;4.27;53.67;101844.66;5027082;28;20052;-67
2022/04/18 04:36:08;;;;;;;11.05;3.65;;;;;;;4.27;53.51;101847.28;5025981;28;20566;-66
2022/04/18 04:38:38;;;;;;;7.22;3.92;;;;;;;4.26;53.47;101850.72;5025545;28;20054;-70
2022/04/18 04:41:15;;;;;;;5.70;3.35;;;;;;;4.25;53.51;101845.50;5025418;28;20517;-69
2022/04/18 04:43:48;;;;;;;5.32;3.50;;;;;;;4.26;53.70;101850.72;5027894;28;20050;-67
2022/04/18 04:46:19;;;;;;;4.57;3.40;;;;;;;4.27;53.84;101847.28;5015863;28;20053;-68
2022/04/18 04:48:54;;;;;;;5.53;4.15;;;;;;;4.32;53.63;101856.00;5029054;28;20188;-68
2022/04/18 04:51:21;;;;;;;7.60;3.67;;;;;;;4.46;53.28;101856.22;5039631;28;20510;-69
2022/04/18 04:53:50;;;;;;;4.93;3.45;;;;;;;4.71;53.08;101851.22;5021406;28;20878;-68
2022/04/18 04:56:28;;;;;;;6.05;3.92;;;;;;;5.48;52.44;101856.25;5018482;28;20234;-69
2022/04/18 04:58:57;;;;;;;8.80;4.10;;;;;;;6.29;51.73;101856.72;5029866;28;20042;-70
2022/04/18 05:01:26;;;;;;;4.60;3.65;;;;;;;7.05;50.67;101843.75;5029679;28;20046;-69
2022/04/18 05:03:58;;;;;;;5.35;3.92;;;;;;;7.57;49.86;101843.72;5020404;28;20053;-69
2022/04/18 05:06:25;;;;;;;5.35;3.40;;;;;;;7.24;49.88;101850.75;5040146;28;20848;-69
2022/04/18 05:08:55;;;;;;;5.25;2.97;;;;;;;7.14;49.83;101841.16;5025727;28;20050;-69
2022/04/18 05:11:24;;;;;;;6.45;3.35;;;;;;;7.86;48.93;101850.66;5035719;28;20045;-70
2022/04/18 05:13:53;;;;;;;5.78;3.20;;;;;;;8.69;47.65;101835.44;5027487;28;20519;-69
2022/04/18 05:16:28;;;;;;;4.15;2.85;;;;;;;9.68;46.05;101844.25;5023752;28;20073;-68
2022/04/18 05:19:18;;;;;;;7.05;3.65;;;;;;;10.64;44.09;101843.06;5023501;28;20064;-68
2022/04/18 05:21:47;;;;;;;4.05;2.95;;;;;;;11.36;42.46;101830.50;5023562;28;20133;-68
2022/04/18 05:24:20;;;;;;;5.68;3.60;;;;;;;12.07;40.92;101834.44;5038064;28;20049;-68
2022/04/18 05:26:49;;;;;;;4.72;2.92;;;;;;;12.66;39.76;101840.25;5015931;28;20049;-68
2022/04/18 05:29:17;;;;;;;4.95;2.90;;;;;;;13.23;38.67;101843.31;5019618;28;20133;-69
2022/04/18 05:31:45;;;;;;;6.13;3.22;;;;;;;13.68;37.03;101837.72;5028727;28;20073;-68
2022/04/18 05:34:14;;;;;;;4.00;2.85;;;;;;;13.97;36.48;101828.97;5026695;28;20069;-68
2022/04/18 05:37:07;;;;;;;4.65;3.08;;;;;;;13.66;36.40;101835.13;5024237;28;20066;-68
2022/04/18 05:39:57;;;;;;;4.97;2.85;;;;;;;12.39;37.45;101834.69;5020598;28;20049;-68
2022/04/18 05:42:25;;;;;;;4.25;3.00;;;;;;;11.40;38.95;101836.59;5025521;28;20152;-67
2022/04/18 05:44:58;;;;;;;5.68;2.88;;;;;;;10.65;40.20;101842.19;5037264;28;20093;-66
2022/04/18 05:47:26;;;;;;;4.93;2.55;;;;;;;10.09;40.91;101842.91;5028726;28;20049;-67
2022/04/18 05:49:53;;;;;;;4.75;2.90;;;;;;;9.70;41.90;101853.00;5019332;28;20054;-68
2022/04/18 05:52:22;;;;;;;5.30;2.63;;;;;;;9.38;42.31;101839.25;5035694;28;20046;-68
2022/04/18 05:54:54;;;;;;;7.90;2.65;;;;;;;9.13;42.75;101849.13;5021311;28;20050;-68
2022/04/18 05:57:23;;;;;;;5.00;2.75;;;;;;;8.94;43.20;101845.78;5019753;28;20041;-68
2022/04/18 05:59:57;;;;;;;3.50;2.50;;;;;;;8.80;43.65;101843.25;5021495;28;20034;-68
2022/04/18 06:02:37;;;;;;;5.28;2.97;;;;;;;8.70;44.10;101856.44;5027362;28;20038;-68
2022/04/18 06:05:12;;;;;;;3.80;2.63;;;;;;;8.64;44.37;101859.13;5023059;28;20116;-67
2022/04/18 06:08:05;;;;;;;5.32;2.78;;;;;;;8.60;44.79;101852.13;5024485;28;20042;-69
2022/04/18 06:11:08;;;;;;;4.93;2.50;;;;;;;8.64;44.88;101859.13;5017966;28;20121;-69
2022/04/18 06:14:02;;;;;;;7.22;2.60;;;;;;;8.64;44.69;101853.00;5023041;28;20112;-68
2022/04/18 06:16:34;;;;;;;5.45;2.75;;;;;;;8.67;44.91;101859.13;5022228;28;20034;-69
2022/04/18 06:19:01;;;;;;;5.85;2.90;;;;;;;8.74;45.14;101856.44;5019286;28;20050;-68
2022/04/18 06:21:28;;;;;;;3.83;2.80;;;;;;;8.80;45.27;101859.91;5022690;28;20089;-70
2022/04/18 06:23:56;;;;;;;4.18;2.60;;;;;;;8.89;45.22;101863.34;5038979;28;20049;-69
2022/04/18 06:26:26;;;;;;;5.68;2.67;;;;;;;8.96;45.13;101855.41;5023176;28;20129;-69
2022/04/18 06:28:57;;;;;;;5.47;2.75;;;;;;;9.07;45.13;101868.47;5023065;28;20046;-70
2022/04/18 06:31:25;;;;;;;5.63;2.40;;;;;;;9.17;44.81;101856.13;5039810;28;20058;-68
2022/04/18 06:34:06;;;;;;;3.80;2.83;;;;;;;9.30;44.68;101864.78;5036324;28;20045;-70
2022/04/18 06:36:37;;;;;;;4.28;2.58;;;;;;;9.44;44.53;101867.28;5036292;28;20121;-69
2022/04/18 06:39:21;;;;;;;7.45;2.70;;;;;;;9.58;44.49;101860.16;5017721;28;20121;-70
2022/04/18 06:41:55;;;;;;;3.45;2.53;;;;;;;9.74;44.64;101858.22;5023617;28;20039;-69
2022/04/18 06:44:25;;;;;;;4.20;2.20;;;;;;;9.90;43.86;101864.22;5026376;28;20479;-70
2022/04/18 06:46:56;;;;;;;3.45;2.25;;;;;;;10.05;43.13;101863.16;5020533;28;20074;-70
2022/04/18 06:49:47;;;;;;;6.60;2.40;;;;;;;10.21;43.27;101855.06;5024977;28;20042;-70
2022/04/18 06:52:42;;;;;;;4.07;2.22;;;;;;;10.41;43.16;101860.13;5021156;28;20050;-69
2022/04/18 06:56:58;;;;;;;3.42;2.35;;;;;;;10.61;42.53;101856.31;5024464;28;20116;-71
2022/04/18 06:58:16;;;;;;;6.05;2.28;;;;;;;10.78;42.54;101854.31;5018511;28;20052;-70
2022/04/18 07:00:43;;;;;;;5.82;2.72;;;;;;;10.96;42.46;101855.81;5025141;28;20050;-69
2022/04/18 07:03:14;;;;;;;4.78;2.13;;;;;;;11.13;42.20;101846.72;5014935;28;20125;-70
2022/04/18 07:05:42;;;;;;;2.90;2.10;;;;;;;11.28;41.19;101838.56;5036088;28;20054;-70
2022/04/18 07:08:09;;;;;;;5.55;2.38;;;;;;;11.42;40.69;101840.06;5029101;28;20133;-70
2022/04/18 07:10:37;;;;;;;3.05;2.08;;;;;;;11.59;40.65;101845.06;5026468;28;20133;-68
2022/04/18 07:13:10;;;;;;;3.95;2.00;;;;;;;11.75;40.80;101845.63;5034858;28;20054;-69
2022/04/18 07:15:39;;;;;;;3.40;2.28;;;;;;;11.90;40.60;101839.19;5025571;28;20507;-69
2022/04/18 07:18:08;;;;;;;4.53;2.33;;;;;;;12.05;40.40;101836.28;5024396;28;20123;-70
2022/04/18 07:20:36;;;;;;;3.47;1.90;;;;;;;12.23;40.30;101847.34;5020415;28;20483;-70
2022/04/18 07:23:08;;;;;;;4.07;2.40;;;;;;;12.41;40.26;101846.97;5041571;28;20038;-69
2022/04/18 07:25:49;;;;;;;4.10;2.10;;;;;;;12.60;40.03;101848.31;5037781;28;20053;-69
2022/04/18 07:28:24;;;;;;;3.67;1.80;;;;;;;12.76;39.70;101843.56;5037770;28;20784;-70
2022/04/18 07:30:51;;;;;;;5.43;1.98;;;;;;;12.88;39.23;101846.78;5025794;28;20049;-70
2022/04/18 07:33:19;;;;;;;2.78;2.10;;;;;;;13.00;39.11;101852.69;5022871;28;20042;-68
2022/04/18 07:35:46;;;;;;;3.95;2.17;;;;;;;13.13;38.98;101851.44;5021519;28;20163;-69
2022/04/18 07:41:04;;;;;;;3.05;2.13;;;;;;;13.36;38.02;101850.88;5014422;28;20045;-71
2022/04/18 07:43:37;;;;;;;3.78;2.13;;;;;;;13.48;38.28;101851.50;5035878;28;20045;-71
2022/04/18 07:46:08;;;;;;;3.70;2.30;;;;;;;13.60;38.49;101850.31;5034736;28;20042;-71
2022/04/18 07:48:35;;;;;;;3.20;2.35;;;;;;;13.72;38.44;101849.09;5036114;28;20054;-68
2022/04/18 07:53:52;;;;;;;4.28;2.20;;;;;;;13.92;38.17;101836.16;5024700;28;20536;-70
2022/04/18 07:56:20;;;;;;;3.60;2.33;;;;;;;14.02;38.17;101839.44;5025033;28;20038;-69
2022/04/18 07:58:48;;;;;;;2.90;1.85;;;;;;;14.09;37.81;101840.97;5022955;28;20049;-70
2022/04/18 08:01:22;;;;;;;;;;;;;;;14.16;37.34;101835.47;5020345;28;20528;-68
2022/04/18 08:03:50;;;;;;;5.03;2.63;;;;;;;14.24;37.26;101833.50;5022461;28;19929;-69
2022/04/18 08:06:18;;;;;;;3.08;2.00;;;;;;;14.31;37.17;101837.69;5023216;28;20034;-68
2022/04/18 08:08:58;;;;;;;4.53;1.95;;;;;;;14.42;36.59;101837.34;5011704;28;20034;-68
2022/04/18 08:11:26;;;;;;;3.70;2.20;;;;;;;14.50;36.47;101835.31;5032882;28;20042;-69
2022/04/18 08:13:54;;;;;;;4.78;2.10;;;;;;;14.60;36.40;101831.47;5024474;28;20054;-70
2022/04/18 08:16:39;;;;;;;5.45;2.20;;;;;;;14.70;35.44;101836.53;5025633;28;20093;-69
2022/04/18 08:19:24;;;;;;;;;;;;;;;14.79;36.10;101832.72;5028782;28;20141;-69
2022/04/18 08:21:52;;;;;;;4.85;2.38;;;;;;;14.91;36.02;101829.66;5029645;28;19932;-69
2022/04/18 08:24:20;;;;;;;6.57;2.38;;;;;;;15.04;36.11;101828.34;5023984;28;20057;-69
2022/04/18 08:27:06;;;;;;;3.85;2.00;;;;;;;15.20;35.96;101834.00;5025232;28;20479;-70
2022/04/18 08:29:42;;;;;;;6.50;2.75;;;;;;;15.30;35.89;101829.22;5024778;28;20041;-68
2022/04/18 08:32:23;;;;;;;3.35;1.83;;;;;;;15.46;35.50;101824.25;5019728;28;20125;-70
2022/04/18 08:34:53;;;;;;;7.13;2.53;;;;;;;15.60;35.65;101828.22;5040927;28;20041;-69
2022/04/18 08:37:20;;;;;;;4.20;2.17;;;;;;;15.73;35.12;101829.50;5023335;28;20777;-70
2022/04/18 08:40:42;;;;;;;3.58;2.35;;;;;;;15.91;35.15;101828.00;5025624;28;20054;-70
2022/04/18 08:43:11;;;;;;;5.45;2.20;;;;;;;16.06;34.80;101823.91;5027637;28;20435;-71
2022/04/18 08:45:39;;;;;;;7.57;2.50;;;;;;;16.20;33.80;101822.50;5025339;28;20114;-68
2022/04/18 08:53:43;;;;;;;5.93;1.95;;;;;;;16.61;33.86;101812.03;5026661;28;20050;-71
2022/04/18 08:56:12;;;;;;;3.75;2.20;;;;;;;16.72;33.90;101812.47;5016819;28;20043;-71
2022/04/18 08:58:44;;;;;;;2.83;2.10;;;;;;;16.83;33.91;101814.66;5021752;28;20040;-69
2022/04/18 09:01:18;;;;;;;4.30;2.47;;;;;;;16.97;33.56;101815.94;5032659;28;20122;-72
2022/04/18 09:04:20;;;;;;;6.32;2.10;;;;;;;17.11;33.39;101810.88;5027300;28;20163;-71
2022/04/18 09:06:52;;;;;;;4.90;2.10;;;;;;;17.21;32.89;101814.88;5029102;28;20049;-70
2022/04/18 09:09:28;;;;;;;4.10;2.13;;;;;;;17.30;32.10;101810.97;5019450;28;20051;-70
2022/04/18 09:12:21;;;;;;;4.13;2.28;;;;;;;17.44;31.93;101813.03;4996420;28;20046;-70
2022/04/18 09:15:14;;;;;;;7.13;2.10;;;;;;;17.58;32.22;101800.91;5014761;28;21008;-70
2022/04/18 09:17:47;;;;;;;7.68;2.10;;;;;;;17.68;31.28;101802.22;5007553;28;20042;-70
2022/04/18 09:21:04;;;;;;;3.40;1.90;;;;;;;17.79;30.34;101801.72;5007392;28;20047;-71
2022/04/18 09:23:37;;;;;;;2.70;1.80;;;;;;;17.96;31.23;101792.94;4996318;28;20045;-69
2022/04/18 09:26:30;;;;;;;4.47;2.05;;;;;;;18.11;30.07;101797.56;5006044;28;20191;-70
2022/04/18 09:29:05;;;;;;;3.70;2.22;;;;;;;18.24;29.73;101789.00;5001467;28;20141;-69
2022/04/18 09:31:41;;;;;;;6.53;2.28;;;;;;;18.28;30.20;101786.09;4995014;28;20513;-71
2022/04/18 09:34:31;;;;;;;5.20;2.10;;;;;;;18.39;30.21;101785.63;5005855;28;20050;-69
2022/04/18 09:37:17;;;;;;;2.40;1.98;;;;;;;18.53;30.13;101776.03;5009989;28;20050;-69
2022/04/18 09:39:54;;;;;;;4.72;2.10;;;;;;;18.60;29.53;101775.66;5003190;28;20121;-69
2022/04/18 09:42:26;;;;;;;6.22;2.65;;;;;;;18.70;29.64;101778.78;5008256;28;20050;-69
2022/04/18 09:45:20;;;;;;;3.22;2.30;;;;;;;18.77;29.51;101777.50;5005995;28;20114;-70
2022/04/18 09:48:03;;;;;;;4.85;2.15;;;;;;;18.88;28.97;101770.75;5000600;28;20509;-70
2022/04/18 09:53:26;;;;;;;2.67;2.13;;;;;;;19.18;29.12;101762.16;5001821;28;20049;-69
2022/04/18 09:55:56;;;;;;;5.13;2.00;;;;;;;19.30;29.12;101764.19;5008953;28;20540;-70
2022/04/18 09:58:25;;;;;;;4.07;1.92;;;;;;;19.44;28.87;101760.78;5002219;28;20042;-69
2022/04/18 10:01:13;;;;;;;2.63;2.10;;;;;;;19.54;28.76;101762.00;5004762;28;20600;-69
2022/04/18 10:03:43;;;;;;;5.28;2.03;;;;;;;19.64;28.77;101753.47;5007752;28;20065;-69
2022/04/18 10:06:11;;;;;;;4.85;1.90;;;;;;;19.71;28.02;101752.19;5008787;28;20038;-70
2022/04/18 10:08:39;;;;;;;6.55;1.95;;;;;;;19.85;28.05;101754.09;5008663;28;20096;-68
2022/04/18 10:11:08;;;;;;;3.35;2.13;;;;;;;19.95;27.00;101750.00;5006429;28;20070;-71
2022/04/18 10:13:37;;;;;;;2.17;1.50;;;;;;;20.06;26.48;101749.41;5003967;28;20046;-68
2022/04/18 10:16:06;;;;;;;3.42;1.80;;;;;;;20.19;25.17;101754.09;5000150;28;20097;-69
2022/04/18 10:18:54;;;;;;;4.10;1.55;;;;;;;20.26;24.34;101750.09;5004145;28;20050;-70
2022/04/18 10:21:31;;;;;;;3.45;1.73;;;;;;;20.36;25.61;101745.94;4999902;28;20137;-69
2022/04/18 10:25:04;;;;;;;2.75;1.95;;;;;;;20.45;24.36;101742.75;5006380;28;20532;-69
2022/04/18 10:27:40;;;;;;;4.10;2.28;;;;;;;20.50;25.80;101744.31;4997648;28;20041;-69
2022/04/18 10:30:11;;;;;;;3.47;1.75;;;;;;;20.53;25.44;101739.63;4998037;28;20113;-69
2022/04/18 10:32:39;;;;;;;6.68;2.22;;;;;;;20.55;25.00;101742.19;4996783;28;20051;-70
2022/04/18 10:35:11;;;;;;;2.28;1.67;;;;;;;20.58;25.09;101739.34;5001262;28;20105;-69
2022/04/18 10:37:42;;;;;;;3.28;1.58;;;;;;;20.64;24.23;101733.63;4976373;28;20129;-68
2022/04/18 10:40:11;;;;;;;2.08;1.70;;;;;;;20.74;24.55;101739.34;4998855;28;20498;-69
2022/04/18 10:42:43;;;;;;;4.18;2.20;;;;;;;20.89;24.70;101742.94;4996217;28;20052;-69
2022/04/18 10:45:17;;;;;;;2.95;1.77;;;;;;;20.98;24.14;101731.66;4993365;28;20042;-69
2022/04/18 10:47:56;;;;;;;4.05;1.83;;;;;;;20.99;24.32;101725.34;5000365;28;20046;-69
2022/04/18 10:50:32;;;;;;;5.03;1.50;;;;;;;21.04;24.30;101728.59;5006737;28;20066;-70
2022/04/18 10:53:22;;;;;;;3.90;1.85;;;;;;;21.12;24.26;101722.78;4998234;28;20039;-71
2022/04/18 10:55:56;;;;;;;3.17;1.90;;;;;;;21.17;24.12;101725.16;5003617;28;20053;-70
2022/04/18 10:58:34;;;;;;;3.88;1.60;;;;;;;21.21;24.13;101724.88;5002625;28;20035;-70
2022/04/18 11:01:08;;;;;;;6.68;2.00;;;;;;;21.31;24.04;101714.47;5003438;28;20054;-69
2022/04/18 11:03:48;;;;;;;3.88;2.00;;;;;;;21.36;24.27;101720.38;5004418;28;20105;-69
2022/04/18 11:06:16;;;;;;;2.25;1.88;;;;;;;21.44;23.54;101711.88;5008406;28;20078;-68
2022/04/18 11:09:07;;;;;;;2.72;2.10;;;;;;;21.54;23.85;101709.47;5000586;28;20070;-70
2022/04/18 11:12:01;;;;;;;5.13;1.77;;;;;;;21.61;23.82;101716.22;5001051;28;20051;-69
2022/04/18 11:14:51;;;;;;;4.90;1.95;;;;;;;21.66;21.96;101700.66;5009617;28;20070;-69
2022/04/18 11:17:26;;;;;;;5.05;1.73;;;;;;;21.65;21.65;101700.78;4995706;28;20133;-69
2022/04/18 11:19:53;;;;;;;2.42;1.67;;;;;;;21.63;22.78;101695.50;5014179;28;20045;-69
2022/04/18 11:22:25;;;;;;;3.03;1.92;;;;;;;21.71;23.35;101701.25;5006406;28;20061;-68
2022/04/18 11:24:52;;;;;;;3.00;1.92;;;;;;;21.79;23.65;101689.16;5001987;28;20051;-69
2022/04/18 11:27:22;;;;;;;2.03;1.60;;;;;;;21.92;23.25;101689.22;5005686;28;20038;-70
2022/04/18 11:30:05;;;;;;;2.30;1.33;;;;;;;22.06;23.46;101699.03;5007886;28;20049;-69
2022/04/18 11:32:44;;;;;;;5.38;1.83;;;;;;;22.14;23.39;101689.53;5001550;28;20081;-68
2022/04/18 11:35:15;;;;;;;8.60;2.05;;;;;;;22.27;22.18;101677.97;4999901;28;20043;-69
2022/04/18 11:37:46;;;;;;;2.78;1.60;;;;;;;22.33;22.87;101682.94;5004799;28;20540;-68
2022/04/18 11:40:18;;;;;;;1.92;1.48;;;;;;;22.38;22.30;101678.13;5018692;28;20046;-69
2022/04/18 11:42:46;;;;;;;2.72;1.40;;;;;;;22.51;22.59;101674.63;5003563;28;20042;-70
2022/04/18 11:45:31;;;;;;;3.05;1.55;;;;;;;22.67;23.16;101678.00;5003319;28;20073;-69
2022/04/18 11:47:58;;;;;;;3.58;1.48;;;;;;;22.82;22.47;101670.72;5011916;28;20051;-69
2022/04/18 11:50:27;;;;;;;2.30;1.65;;;;;;;22.94;22.62;101680.59;5006599;28;20047;-69
2022/04/18 11:53:06;;;;;;;3.67;1.70;;;;;;;22.96;19.91;101684.03;5010622;28;20571;-67
2022/04/18 11:55:50;;;;;;;3.35;1.88;;;;;;;22.85;20.06;101681.22;5005250;28;20500;-69
2022/04/18 11:58:20;;;;;;;1.92;1.60;;;;;;;22.84;21.13;101684.88;5005750;28;20484;-69
2022/04/18 12:09:10;;;;;;;2.90;1.63;;;;;;;22.88;22.05;101672.09;5004131;28;20039;-69
2022/04/18 12:11:38;;;;;;;3.10;1.80;;;;;;;22.94;21.15;101674.34;5013614;28;20053;-69
2022/04/18 12:14:11;;;;;;;3.55;1.67;;;;;;;22.94;21.33;101671.66;5012908;28;20754;-69
2022/04/18 12:16:40;;;;;;;2.75;1.55;;;;;;;22.98;20.76;101670.50;5005765;28;20520;-69
2022/04/18 12:19:15;;;;;;;3.08;1.88;;;;;;;23.00;20.18;101665.00;4995380;28;20082;-69
2022/04/18 12:21:49;;;;;;;3.13;1.63;;;;;;;23.00;19.77;101663.16;5004249;28;20046;-69
2022/04/18 12:24:16;;;;;;;2.67;1.70;;;;;;;22.98;21.12;101650.81;5011688;28;20050;-69
2022/04/18 12:26:51;;;;;;;11.18;1.73;;;;;;;23.02;21.33;101650.47;4999649;28;20062;-69
2022/04/18 12:29:20;;;;;;;3.35;1.70;;;;;;;23.08;21.84;101654.56;5003756;28;20046;-69
2022/04/18 12:31:47;;;;;;;2.30;1.60;;;;;;;23.13;20.29;101649.75;5012694;28;20058;-70
2022/04/18 12:34:19;;;;;;;2.80;1.70;;;;;;;23.09;20.48;101638.34;5004578;28;20444;-69
2022/04/18 12:36:59;;;;;;;3.33;1.70;;;;;;;23.07;19.77;101632.22;5005459;28;20050;-70